METAR v bližini

 

LJLJ - Ljubljana/Brnik, Slovenia
Oddaljenost od postaje: W 41km
Podatki zajeti: 02/03/2024 10:30
Pretežno oblačno
Pretežno oblačno
 Veter iz smeri W
Veter: W 6 km/h
Temperatura: 9°C
Rosišče: 8°C
Vlažnost: 94%
Tlak: 1010 hPa
Oblačnost: Pretežno oblačno
Vidljivost: 8 km
Podrobnosti o oblakih: Rahlo oblačno 91 m
Delno oblačno 305 m
Pretežno oblačno 1219 m
2024/03/02 09:30 LJLJ 020930Z 26003KT 230V290 8000 FEW003 SCT010 BKN040 09/08 Q1010 NOSIG
LJMB - Maribor, Slovenia
Oddaljenost od postaje: NE 63km
Podatki zajeti: 02/03/2024 10:30
Oblačno
Oblačno
 Veter iz smeri SSW
Veter: SSW 7 km/h
Temperatura: 7°C
Občutek mraza zaradi vetra: 6°C
Rosišče: 6°C
Vlažnost: 93%
Tlak: 1010 hPa
Oblačnost: Oblačno
Vidljivost: 6 km
Podrobnosti o oblakih: Oblačno 91 m
2024/03/02 09:30 LJMB 020930Z 21004KT 150V240 6000 OVC003 07/06 Q1010
 
LJPZ - Portoroz, Slovenia
Oddaljenost od postaje: SW 130km
Podatki zajeti: 02/03/2024 10:30
Rahlo dežuje, Pretežno oblačno
Rahlo dežuje, Pretežno oblačno
 Veter iz smeri spremenljiv
Veter: spremenljiv 4 km/h
Temperatura: 14°C
Rosišče: 8°C
Vlažnost: 67%
Tlak: 1010 hPa
Stanje: Rahlo dežuje
Oblačnost: Pretežno oblačno
Vidljivost: 10 km
Podrobnosti o oblakih: Delno oblačno 1524 m
Pretežno oblačno 2134 m
2024/03/02 09:30 LJPZ 020930Z VRB02KT 9999 -RA SCT050 BKN070 14/08 Q1010
LJCE - Cerklje, Slovenia
Oddaljenost od postaje: ESE 49km
Podatki zajeti: 02/03/2024 10:30
Delno oblačno
Delno oblačno
 Veter iz smeri NNE
Veter: NNE 2 km/h
Temperatura: 9°C
Rosišče: 8°C
Vlažnost: 94%
Tlak: 1010 hPa
Oblačnost: Delno oblačno
Vidljivost: 7 km
Podrobnosti o oblakih: Rahlo oblačno 91 m
Delno oblačno 1524 m
2024/03/02 09:30 LJCE 020930Z 02001KT 7000 FEW003 SCT050 09/08 Q1010 RMK WHT
 
LDZA - Zagreb/Pleso, Croatia
Oddaljenost od postaje: ESE 96km
Podatki zajeti: 02/03/2024 10:30
Meglica, Pretežno oblačno
Meglica, Pretežno oblačno
 Veter iz smeri spremenljiv
Veter: spremenljiv 4 km/h
Temperatura: 8°C
Rosišče: 8°C
Vlažnost: 100%
Tlak: 1010 hPa
Stanje: Meglica
Oblačnost: Pretežno oblačno
Vidljivost: 4 km
Podrobnosti o oblakih: Pretežno oblačno 122 m
2024/03/02 09:30 LDZA 020930Z VRB02KT 3500 BR BKN004 08/08 Q1010 BECMG 4000 BKN005
LDRI - Rijeka/Omisalj, Croatia
Oddaljenost od postaje: SSW 109km
Podatki zajeti: 02/03/2024 10:30
Pretežno oblačno
Pretežno oblačno
 Veter iz smeri spremenljiv
Veter: spremenljiv 4 km/h
Temperatura: 12°C
Rosišče: 9°C
Vlažnost: 82%
Tlak: 1011 hPa
Oblačnost: Pretežno oblačno
Vidljivost: 10 km
Podrobnosti o oblakih: Rahlo oblačno 610 m
Pretežno oblačno 1219 m
2024/03/02 09:30 LDRI 020930Z VRB02KT 9999 FEW020 BKN040 12/09 Q1011
 
LDPL - Pula, Croatia
Oddaljenost od postaje: SSW 164km
Podatki zajeti: 02/03/2024 10:30
Nevihte v okolici, Oblačno
Nevihte v okolici, Oblačno
 Veter iz smeri E
Veter: E 17 km/h
Temperatura: 11°C
Rosišče: 9°C
Vlažnost: 88%
Tlak: 1010 hPa
Stanje: Nevihte v okolici
Oblačnost: Oblačno
Vidljivost: 10 km
Podrobnosti o oblakih: Delno oblačno 305 m
Rahlo oblačno 488 m
Oblačno 610 m
2024/03/02 09:30 LDPL 020930Z 08009KT 9999 VCTS SCT010 FEW016CB OVC020 11/09 Q1010 RETS
LOWK - Klagenfurt(Civ/M, Austria
Oddaljenost od postaje: NW 76km
Podatki zajeti: 02/03/2024 10:20
Pretežno oblačno
Pretežno oblačno
 Veter iz smeri spremenljiv
Veter: spremenljiv 2 km/h
Temperatura: 8°C
Rosišče: 6°C
Vlažnost: 87%
Tlak: 1010 hPa
Oblačnost: Pretežno oblačno
Vidljivost: 8 km
Podrobnosti o oblakih: Delno oblačno 213 m
Pretežno oblačno 244 m
2024/03/02 09:20 LOWK 020920Z AUTO VRB01KT 8000 SCT007 BKN008 08/06 Q1010 BECMG SCT010 BKN020
 
LOWG - Graz (mil/Civ), Austria
Oddaljenost od postaje: NNE 100km
Podatki zajeti: 02/03/2024 10:20
Pretežno oblačno
Pretežno oblačno
 Veter iz smeri S
Veter: S 7 km/h
Temperatura: 9°C
Občutek mraza zaradi vetra: 8°C
Rosišče: 6°C
Vlažnost: 82%
Tlak: 1009 hPa
Oblačnost: Pretežno oblačno
Vidljivost: 10 km
Podrobnosti o oblakih: Rahlo oblačno 274 m
Pretežno oblačno 305 m
2024/03/02 09:20 LOWG 020920Z AUTO 19004KT 140V260 9999 FEW009 BKN010 09/06 Q1009 BECMG SCT010
LOAN - Wr.neustadt East, Austria
Oddaljenost od postaje: NNE 212km
Podatki zajeti: 02/03/2024 10:00
Megla, Oblačno
Megla, Oblačno
 Veter iz smeri spremenljiv
Veter: spremenljiv 4 km/h
Stanje: Megla
Oblačnost: Oblačno
Vidljivost: 0 km
Podrobnosti o oblakih: Oblačno 61 m
2024/03/02 09:00 LOAN 020900Z VRB02KT 0300 FG VV002
 
LIPQ - Ronchi Legionari, Italy
Oddaljenost od postaje: SW 35km
Podatki zajeti: 02/03/2024 10:20
Pretežno oblačno
Pretežno oblačno
 Veter iz smeri NE
Veter: NE 7 km/h
Temperatura: 12°C
Rosišče: 8°C
Vlažnost: 77%
Tlak: 1010 hPa
Oblačnost: Pretežno oblačno
Vidljivost: 10 km
Podrobnosti o oblakih: Pretežno oblačno 884 m
2024/03/02 09:20 LIPQ 020920Z AUTO 05004KT 010V110 9999 BKN029/// 12/08 Q1010
LIVT - Trieste, Italy
Oddaljenost od postaje: WSW 109km
Podatki zajeti: 02/03/2024 09:55

 Veter iz smeri WNW
Veter: WNW 2 km/h
Temperatura: 12°C
Rosišče: 9°C
Vlažnost: 82%
Tlak: 1010 hPa
2024/03/02 08:55 LIVT 020855Z AUTO 30001KT //// 12/09 Q1010
 
LIVO - Tarvisio, Italy
Oddaljenost od postaje: NNW 49km
Podatki zajeti: 01/03/2024 10:55
Ni posodobljen
Rahlo rosi, Meglica, Oblačno
Rahlo rosi, Meglica, Oblačno
 Veter iz smeri calm
Veter: Calm
Temperatura: 5°C
Rosišče: 3°C
Vlažnost: 87%
Tlak: 1008 hPa
Stanje: Rahlo rosi, Meglica
Oblačnost: Oblačno
Vidljivost: 2 km
Podrobnosti o oblakih: Oblačno 305 m
2024/03/01 09:55 LIVO 010955Z 00000KT 2000 -DZ BR OVC010 05/03 Q1008
LIPZ - Venezia/Tessera, Italy
Oddaljenost od postaje: WSW 217km
Podatki zajeti: 02/03/2024 10:20
Pretežno oblačno
Pretežno oblačno
 Veter iz smeri NNE
Veter: NNE 13 km/h
Temperatura: 11°C
Rosišče: 10°C
Vlažnost: 94%
Tlak: 1010 hPa
Oblačnost: Pretežno oblačno
Vidljivost: 10 km
Podrobnosti o oblakih: Rahlo oblačno 457 m
Delno oblačno 762 m
Pretežno oblačno 1067 m
2024/03/02 09:20 LIPZ 020920Z 03007KT 9999 FEW015 SCT025 BKN035 11/10 Q1010 NOSIG
 
LHSM - Balaton, Hungary
Oddaljenost od postaje: ENE 177km
Podatki zajeti: 02/03/2024 10:15
Meglica, Oblačno
Meglica, Oblačno
 Veter iz smeri calm
Veter: Calm
Temperatura: 10°C
Rosišče: 8°C
Vlažnost: 88%
Tlak: 1010 hPa
Stanje: Meglica
Oblačnost: Oblačno
Vidljivost: 5 km
Podrobnosti o oblakih: Oblačno 183 m
2024/03/02 09:15 LHSM 020915Z AUTO 00000KT 5000 BR OVC006 10/08 Q1010 BECMG SCT012 BKN070